sensor_id;sensor_type;location;lat;lon;timestamp;P1;durP1;ratioP1;P2;durP2;ratioP2
14330;SDS011;7249;49.376;11.080;2023-12-07T01:00:50;8.13;;;5.03;;
14330;SDS011;7249;49.376;11.080;2023-12-07T01:03:16;7.70;;;5.10;;
14330;SDS011;7249;49.376;11.080;2023-12-07T01:05:42;8.20;;;4.73;;
14330;SDS011;7249;49.376;11.080;2023-12-07T01:08:07;7.90;;;4.97;;
14330;SDS011;7249;49.376;11.080;2023-12-07T01:10:33;5.87;;;4.20;;
14330;SDS011;7249;49.376;11.080;2023-12-07T01:12:58;10.67;;;5.33;;
14330;SDS011;7249;49.376;11.080;2023-12-07T01:15:24;7.23;;;4.60;;
14330;SDS011;7249;49.376;11.080;2023-12-07T01:17:50;9.80;;;5.00;;
14330;SDS011;7249;49.376;11.080;2023-12-07T01:20:15;9.23;;;5.07;;
14330;SDS011;7249;49.376;11.080;2023-12-07T01:22:42;6.77;;;4.63;;
14330;SDS011;7249;49.376;11.080;2023-12-07T01:25:07;8.87;;;4.37;;
14330;SDS011;7249;49.376;11.080;2023-12-07T01:27:33;8.57;;;4.53;;
14330;SDS011;7249;49.376;11.080;2023-12-07T01:29:59;7.07;;;4.40;;
14330;SDS011;7249;49.376;11.080;2023-12-07T01:32:25;7.77;;;4.40;;
14330;SDS011;7249;49.376;11.080;2023-12-07T01:34:50;9.77;;;5.60;;
14330;SDS011;7249;49.376;11.080;2023-12-07T01:37:16;8.73;;;4.30;;
14330;SDS011;7249;49.376;11.080;2023-12-07T01:39:42;8.17;;;4.53;;
14330;SDS011;7249;49.376;11.080;2023-12-07T01:42:08;7.73;;;5.10;;
14330;SDS011;7249;49.376;11.080;2023-12-07T01:44:34;7.30;;;4.87;;
14330;SDS011;7249;49.376;11.080;2023-12-07T01:47:00;6.43;;;4.27;;
14330;SDS011;7249;49.376;11.080;2023-12-07T01:49:26;7.07;;;4.23;;
14330;SDS011;7249;49.376;11.080;2023-12-07T01:51:53;10.33;;;5.80;;
14330;SDS011;7249;49.376;11.080;2023-12-07T01:54:19;7.97;;;4.37;;
14330;SDS011;7249;49.376;11.080;2023-12-07T01:56:45;9.03;;;5.23;;
14330;SDS011;7249;49.376;11.080;2023-12-07T01:59:11;7.57;;;4.20;;
14330;SDS011;7249;49.376;11.080;2023-12-07T02:01:37;6.33;;;4.40;;
14330;SDS011;7249;49.376;11.080;2023-12-07T02:04:03;7.83;;;4.10;;
14330;SDS011;7249;49.376;11.080;2023-12-07T02:06:28;8.87;;;5.47;;
14330;SDS011;7249;49.376;11.080;2023-12-07T02:08:55;9.00;;;4.37;;
14330;SDS011;7249;49.376;11.080;2023-12-07T02:11:21;6.90;;;4.07;;
14330;SDS011;7249;49.376;11.080;2023-12-07T02:13:46;7.80;;;4.63;;
14330;SDS011;7249;49.376;11.080;2023-12-07T02:16:21;7.13;;;3.97;;
14330;SDS011;7249;49.376;11.080;2023-12-07T02:18:59;7.00;;;4.47;;
14330;SDS011;7249;49.376;11.080;2023-12-07T02:21:34;6.70;;;4.13;;
14330;SDS011;7249;49.376;11.080;2023-12-07T02:24:06;9.47;;;5.00;;
14330;SDS011;7249;49.376;11.080;2023-12-07T02:26:35;7.53;;;4.80;;
14330;SDS011;7249;49.376;11.080;2023-12-07T02:29:02;8.77;;;4.80;;
14330;SDS011;7249;49.376;11.080;2023-12-07T02:31:28;7.57;;;4.47;;
14330;SDS011;7249;49.376;11.080;2023-12-07T02:33:55;8.53;;;4.13;;
14330;SDS011;7249;49.376;11.080;2023-12-07T02:36:22;6.87;;;4.33;;
14330;SDS011;7249;49.376;11.080;2023-12-07T02:38:49;5.37;;;3.97;;
14330;SDS011;7249;49.376;11.080;2023-12-07T02:41:17;7.47;;;4.27;;
14330;SDS011;7249;49.376;11.080;2023-12-07T02:43:43;7.03;;;5.00;;
14330;SDS011;7249;49.376;11.080;2023-12-07T02:46:10;9.80;;;5.43;;
14330;SDS011;7249;49.376;11.080;2023-12-07T02:48:35;8.10;;;4.63;;
14330;SDS011;7249;49.376;11.080;2023-12-07T02:51:01;9.70;;;4.80;;
14330;SDS011;7249;49.376;11.080;2023-12-07T02:53:26;7.40;;;4.27;;
14330;SDS011;7249;49.376;11.080;2023-12-07T02:55:52;6.97;;;4.70;;
14330;SDS011;7249;49.376;11.080;2023-12-07T02:58:18;7.83;;;4.47;;
14330;SDS011;7249;49.376;11.080;2023-12-07T03:00:43;7.03;;;4.53;;
14330;SDS011;7249;49.376;11.080;2023-12-07T03:03:09;8.37;;;4.70;;
14330;SDS011;7249;49.376;11.080;2023-12-07T03:05:34;5.53;;;4.27;;
14330;SDS011;7249;49.376;11.080;2023-12-07T03:08:00;7.43;;;4.77;;
14330;SDS011;7249;49.376;11.080;2023-12-07T03:10:26;9.43;;;4.80;;
14330;SDS011;7249;49.376;11.080;2023-12-07T03:12:51;9.07;;;4.40;;
14330;SDS011;7249;49.376;11.080;2023-12-07T03:15:17;9.53;;;5.20;;
14330;SDS011;7249;49.376;11.080;2023-12-07T03:17:42;11.77;;;4.80;;
14330;SDS011;7249;49.376;11.080;2023-12-07T03:20:08;11.10;;;4.73;;
14330;SDS011;7249;49.376;11.080;2023-12-07T03:22:35;8.47;;;5.23;;
14330;SDS011;7249;49.376;11.080;2023-12-07T03:25:01;9.27;;;5.40;;
14330;SDS011;7249;49.376;11.080;2023-12-07T03:27:26;9.00;;;5.47;;
14330;SDS011;7249;49.376;11.080;2023-12-07T03:29:53;9.87;;;6.13;;
14330;SDS011;7249;49.376;11.080;2023-12-07T03:32:19;9.83;;;5.23;;
14330;SDS011;7249;49.376;11.080;2023-12-07T03:34:44;8.00;;;4.63;;
14330;SDS011;7249;49.376;11.080;2023-12-07T03:37:10;8.37;;;5.17;;
14330;SDS011;7249;49.376;11.080;2023-12-07T03:39:35;7.97;;;5.50;;
14330;SDS011;7249;49.376;11.080;2023-12-07T03:42:01;9.13;;;5.40;;
14330;SDS011;7249;49.376;11.080;2023-12-07T03:44:27;10.50;;;6.37;;
14330;SDS011;7249;49.376;11.080;2023-12-07T03:46:52;9.70;;;5.47;;
14330;SDS011;7249;49.376;11.080;2023-12-07T03:49:18;7.67;;;5.47;;
14330;SDS011;7249;49.376;11.080;2023-12-07T03:51:44;8.77;;;5.33;;
14330;SDS011;7249;49.376;11.080;2023-12-07T03:54:09;12.77;;;6.00;;
14330;SDS011;7249;49.376;11.080;2023-12-07T03:56:35;11.03;;;5.50;;
14330;SDS011;7249;49.376;11.080;2023-12-07T03:59:00;10.60;;;4.93;;
14330;SDS011;7249;49.376;11.080;2023-12-07T04:01:27;8.73;;;4.63;;
14330;SDS011;7249;49.376;11.080;2023-12-07T04:03:54;7.03;;;4.70;;
14330;SDS011;7249;49.376;11.080;2023-12-07T04:06:21;6.97;;;5.10;;
14330;SDS011;7249;49.376;11.080;2023-12-07T04:08:47;10.40;;;5.07;;
14330;SDS011;7249;49.376;11.080;2023-12-07T04:11:13;9.20;;;5.20;;
14330;SDS011;7249;49.376;11.080;2023-12-07T04:13:39;8.50;;;4.90;;
14330;SDS011;7249;49.376;11.080;2023-12-07T04:16:06;9.67;;;5.13;;
14330;SDS011;7249;49.376;11.080;2023-12-07T04:18:32;10.93;;;5.90;;
14330;SDS011;7249;49.376;11.080;2023-12-07T04:20:58;8.07;;;4.57;;
14330;SDS011;7249;49.376;11.080;2023-12-07T04:23:23;8.10;;;5.03;;
14330;SDS011;7249;49.376;11.080;2023-12-07T04:25:49;8.80;;;5.67;;
14330;SDS011;7249;49.376;11.080;2023-12-07T04:28:14;9.67;;;5.37;;
14330;SDS011;7249;49.376;11.080;2023-12-07T04:30:40;7.80;;;4.87;;
14330;SDS011;7249;49.376;11.080;2023-12-07T04:33:06;10.97;;;5.33;;
14330;SDS011;7249;49.376;11.080;2023-12-07T04:35:31;10.13;;;5.33;;
14330;SDS011;7249;49.376;11.080;2023-12-07T04:37:57;9.60;;;5.40;;
14330;SDS011;7249;49.376;11.080;2023-12-07T04:40:23;11.07;;;5.27;;
14330;SDS011;7249;49.376;11.080;2023-12-07T04:42:50;7.33;;;4.37;;
14330;SDS011;7249;49.376;11.080;2023-12-07T04:45:15;7.83;;;5.33;;
14330;SDS011;7249;49.376;11.080;2023-12-07T04:47:41;8.87;;;5.70;;
14330;SDS011;7249;49.376;11.080;2023-12-07T04:50:07;10.20;;;5.80;;
14330;SDS011;7249;49.376;11.080;2023-12-07T04:52:33;10.67;;;5.97;;
14330;SDS011;7249;49.376;11.080;2023-12-07T04:54:59;10.00;;;5.57;;
14330;SDS011;7249;49.376;11.080;2023-12-07T04:57:25;8.07;;;4.87;;
14330;SDS011;7249;49.376;11.080;2023-12-07T04:59:50;7.97;;;4.80;;
14330;SDS011;7249;49.376;11.080;2023-12-07T05:02:16;8.57;;;4.97;;
14330;SDS011;7249;49.376;11.080;2023-12-07T05:04:42;9.53;;;5.03;;
14330;SDS011;7249;49.376;11.080;2023-12-07T05:07:08;7.33;;;4.97;;
14330;SDS011;7249;49.376;11.080;2023-12-07T05:09:34;9.10;;;4.90;;
14330;SDS011;7249;49.376;11.080;2023-12-07T05:12:00;10.10;;;5.73;;
14330;SDS011;7249;49.376;11.080;2023-12-07T05:14:26;8.23;;;5.37;;
14330;SDS011;7249;49.376;11.080;2023-12-07T05:16:51;7.93;;;5.33;;
14330;SDS011;7249;49.376;11.080;2023-12-07T05:19:21;9.43;;;5.27;;
14330;SDS011;7249;49.376;11.080;2023-12-07T05:21:52;10.73;;;5.63;;
14330;SDS011;7249;49.376;11.080;2023-12-07T05:24:18;7.97;;;5.17;;
14330;SDS011;7249;49.376;11.080;2023-12-07T05:26:44;9.80;;;4.70;;
14330;SDS011;7249;49.376;11.080;2023-12-07T05:29:14;9.37;;;5.17;;
14330;SDS011;7249;49.376;11.080;2023-12-07T05:31:40;10.23;;;5.57;;
14330;SDS011;7249;49.376;11.080;2023-12-07T05:34:06;6.90;;;4.53;;
14330;SDS011;7249;49.376;11.080;2023-12-07T05:36:32;10.93;;;6.03;;
14330;SDS011;7249;49.376;11.080;2023-12-07T05:38:58;8.40;;;5.23;;
14330;SDS011;7249;49.376;11.080;2023-12-07T05:41:24;8.77;;;6.27;;
14330;SDS011;7249;49.376;11.080;2023-12-07T05:43:50;10.90;;;5.80;;
14330;SDS011;7249;49.376;11.080;2023-12-07T05:46:17;10.10;;;6.20;;
14330;SDS011;7249;49.376;11.080;2023-12-07T05:48:43;10.97;;;5.43;;
14330;SDS011;7249;49.376;11.080;2023-12-07T05:51:15;10.07;;;5.53;;
14330;SDS011;7249;49.376;11.080;2023-12-07T05:53:42;9.97;;;5.80;;
14330;SDS011;7249;49.376;11.080;2023-12-07T05:56:08;10.30;;;5.23;;
14330;SDS011;7249;49.376;11.080;2023-12-07T05:58:34;8.23;;;5.30;;
14330;SDS011;7249;49.376;11.080;2023-12-07T06:01:00;7.53;;;4.33;;
14330;SDS011;7249;49.376;11.080;2023-12-07T06:03:27;8.07;;;4.57;;
14330;SDS011;7249;49.376;11.080;2023-12-07T06:05:52;7.50;;;4.87;;
14330;SDS011;7249;49.376;11.080;2023-12-07T06:08:18;7.73;;;4.80;;
14330;SDS011;7249;49.376;11.080;2023-12-07T06:10:44;11.67;;;5.60;;
14330;SDS011;7249;49.376;11.080;2023-12-07T06:13:10;7.90;;;5.47;;
14330;SDS011;7249;49.376;11.080;2023-12-07T06:15:37;10.93;;;6.43;;
14330;SDS011;7249;49.376;11.080;2023-12-07T06:18:02;11.33;;;6.63;;
14330;SDS011;7249;49.376;11.080;2023-12-07T06:20:28;9.60;;;6.30;;
14330;SDS011;7249;49.376;11.080;2023-12-07T06:22:54;10.90;;;5.83;;
14330;SDS011;7249;49.376;11.080;2023-12-07T06:25:20;10.87;;;5.37;;
14330;SDS011;7249;49.376;11.080;2023-12-07T06:27:45;8.27;;;5.27;;
14330;SDS011;7249;49.376;11.080;2023-12-07T06:30:11;6.43;;;4.57;;
14330;SDS011;7249;49.376;11.080;2023-12-07T06:32:37;10.07;;;5.47;;
14330;SDS011;7249;49.376;11.080;2023-12-07T06:35:03;9.27;;;5.93;;
14330;SDS011;7249;49.376;11.080;2023-12-07T06:37:32;9.33;;;6.33;;
14330;SDS011;7249;49.376;11.080;2023-12-07T06:39:58;8.67;;;4.63;;
14330;SDS011;7249;49.376;11.080;2023-12-07T06:42:27;9.70;;;6.23;;
14330;SDS011;7249;49.376;11.080;2023-12-07T06:44:52;10.00;;;6.00;;
14330;SDS011;7249;49.376;11.080;2023-12-07T06:47:18;9.57;;;5.23;;
14330;SDS011;7249;49.376;11.080;2023-12-07T06:49:44;10.03;;;5.43;;
14330;SDS011;7249;49.376;11.080;2023-12-07T06:52:11;10.77;;;6.00;;
14330;SDS011;7249;49.376;11.080;2023-12-07T06:54:37;8.80;;;5.73;;
14330;SDS011;7249;49.376;11.080;2023-12-07T06:57:03;11.03;;;5.83;;
14330;SDS011;7249;49.376;11.080;2023-12-07T06:59:29;10.50;;;5.97;;
14330;SDS011;7249;49.376;11.080;2023-12-07T07:01:55;7.77;;;5.57;;
14330;SDS011;7249;49.376;11.080;2023-12-07T07:04:20;8.60;;;5.53;;
14330;SDS011;7249;49.376;11.080;2023-12-07T07:06:46;7.73;;;5.00;;
14330;SDS011;7249;49.376;11.080;2023-12-07T07:09:12;10.90;;;5.83;;
14330;SDS011;7249;49.376;11.080;2023-12-07T07:11:38;7.20;;;4.33;;
14330;SDS011;7249;49.376;11.080;2023-12-07T07:14:03;9.77;;;5.67;;
14330;SDS011;7249;49.376;11.080;2023-12-07T07:16:29;14.90;;;6.27;;
14330;SDS011;7249;49.376;11.080;2023-12-07T07:18:55;10.60;;;5.77;;
14330;SDS011;7249;49.376;11.080;2023-12-07T07:21:21;10.43;;;6.27;;
14330;SDS011;7249;49.376;11.080;2023-12-07T07:23:47;10.80;;;6.17;;
14330;SDS011;7249;49.376;11.080;2023-12-07T07:26:12;9.00;;;5.23;;
14330;SDS011;7249;49.376;11.080;2023-12-07T07:28:42;10.27;;;5.37;;
14330;SDS011;7249;49.376;11.080;2023-12-07T07:31:08;9.33;;;5.23;;
14330;SDS011;7249;49.376;11.080;2023-12-07T07:33:34;11.47;;;6.13;;
14330;SDS011;7249;49.376;11.080;2023-12-07T07:35:59;8.90;;;5.17;;
14330;SDS011;7249;49.376;11.080;2023-12-07T07:38:25;11.10;;;5.17;;
14330;SDS011;7249;49.376;11.080;2023-12-07T07:40:51;7.93;;;4.77;;
14330;SDS011;7249;49.376;11.080;2023-12-07T07:43:16;8.77;;;5.67;;
14330;SDS011;7249;49.376;11.080;2023-12-07T07:45:42;11.50;;;6.47;;
14330;SDS011;7249;49.376;11.080;2023-12-07T07:48:08;9.70;;;6.17;;
14330;SDS011;7249;49.376;11.080;2023-12-07T07:50:34;12.60;;;6.90;;
14330;SDS011;7249;49.376;11.080;2023-12-07T07:53:01;10.50;;;5.87;;
14330;SDS011;7249;49.376;11.080;2023-12-07T07:55:27;10.40;;;5.80;;
14330;SDS011;7249;49.376;11.080;2023-12-07T07:57:53;11.50;;;6.67;;
14330;SDS011;7249;49.376;11.080;2023-12-07T08:00:19;8.33;;;5.87;;
14330;SDS011;7249;49.376;11.080;2023-12-07T08:02:45;13.67;;;7.90;;
14330;SDS011;7249;49.376;11.080;2023-12-07T08:05:11;12.00;;;7.67;;
14330;SDS011;7249;49.376;11.080;2023-12-07T08:07:39;15.40;;;7.13;;
14330;SDS011;7249;49.376;11.080;2023-12-07T08:10:05;13.00;;;7.20;;
14330;SDS011;7249;49.376;11.080;2023-12-07T08:12:31;15.47;;;7.67;;
14330;SDS011;7249;49.376;11.080;2023-12-07T08:14:58;13.77;;;7.30;;
14330;SDS011;7249;49.376;11.080;2023-12-07T08:17:23;12.17;;;8.13;;
14330;SDS011;7249;49.376;11.080;2023-12-07T08:19:51;15.07;;;8.40;;
14330;SDS011;7249;49.376;11.080;2023-12-07T08:22:17;14.57;;;7.73;;
14330;SDS011;7249;49.376;11.080;2023-12-07T08:24:43;14.53;;;7.70;;
14330;SDS011;7249;49.376;11.080;2023-12-07T08:27:08;15.53;;;7.93;;
14330;SDS011;7249;49.376;11.080;2023-12-07T08:29:34;13.73;;;7.27;;
14330;SDS011;7249;49.376;11.080;2023-12-07T08:32:01;12.10;;;6.83;;
14330;SDS011;7249;49.376;11.080;2023-12-07T08:34:27;13.03;;;7.37;;
14330;SDS011;7249;49.376;11.080;2023-12-07T08:36:53;14.33;;;7.60;;
14330;SDS011;7249;49.376;11.080;2023-12-07T08:39:19;13.63;;;6.90;;
14330;SDS011;7249;49.376;11.080;2023-12-07T08:41:44;9.93;;;6.23;;
14330;SDS011;7249;49.376;11.080;2023-12-07T08:44:10;14.97;;;7.37;;
14330;SDS011;7249;49.376;11.080;2023-12-07T08:46:36;12.17;;;6.93;;
14330;SDS011;7249;49.376;11.080;2023-12-07T08:49:02;13.57;;;8.00;;
14330;SDS011;7249;49.376;11.080;2023-12-07T08:51:28;13.43;;;7.10;;
14330;SDS011;7249;49.376;11.080;2023-12-07T08:53:54;13.77;;;6.83;;
14330;SDS011;7249;49.376;11.080;2023-12-07T08:56:20;11.73;;;7.27;;
14330;SDS011;7249;49.376;11.080;2023-12-07T08:58:45;13.83;;;6.83;;
14330;SDS011;7249;49.376;11.080;2023-12-07T09:01:11;11.93;;;7.13;;
14330;SDS011;7249;49.376;11.080;2023-12-07T09:03:37;12.43;;;6.63;;
14330;SDS011;7249;49.376;11.080;2023-12-07T09:06:03;12.27;;;6.67;;
14330;SDS011;7249;49.376;11.080;2023-12-07T09:08:30;16.17;;;8.67;;
14330;SDS011;7249;49.376;11.080;2023-12-07T09:10:56;12.77;;;6.90;;
14330;SDS011;7249;49.376;11.080;2023-12-07T09:13:21;11.87;;;7.23;;
14330;SDS011;7249;49.376;11.080;2023-12-07T09:15:47;15.33;;;6.83;;
14330;SDS011;7249;49.376;11.080;2023-12-07T09:18:12;13.00;;;6.67;;
14330;SDS011;7249;49.376;11.080;2023-12-07T09:20:41;15.07;;;8.23;;
14330;SDS011;7249;49.376;11.080;2023-12-07T09:23:12;14.27;;;7.77;;
14330;SDS011;7249;49.376;11.080;2023-12-07T09:25:40;16.17;;;8.23;;
14330;SDS011;7249;49.376;11.080;2023-12-07T09:28:06;13.13;;;7.93;;
14330;SDS011;7249;49.376;11.080;2023-12-07T09:30:31;15.60;;;7.50;;
14330;SDS011;7249;49.376;11.080;2023-12-07T09:32:58;12.87;;;6.63;;
14330;SDS011;7249;49.376;11.080;2023-12-07T09:35:24;14.17;;;8.23;;
14330;SDS011;7249;49.376;11.080;2023-12-07T09:37:50;14.80;;;7.43;;
14330;SDS011;7249;49.376;11.080;2023-12-07T09:40:20;14.73;;;7.90;;
14330;SDS011;7249;49.376;11.080;2023-12-07T09:42:47;11.93;;;6.80;;
14330;SDS011;7249;49.376;11.080;2023-12-07T09:45:14;14.23;;;7.27;;
14330;SDS011;7249;49.376;11.080;2023-12-07T09:47:43;13.10;;;7.50;;
14330;SDS011;7249;49.376;11.080;2023-12-07T09:50:11;16.23;;;8.00;;
14330;SDS011;7249;49.376;11.080;2023-12-07T09:52:40;10.40;;;6.23;;
14330;SDS011;7249;49.376;11.080;2023-12-07T09:55:07;13.27;;;7.10;;
14330;SDS011;7249;49.376;11.080;2023-12-07T09:57:33;12.33;;;6.77;;
14330;SDS011;7249;49.376;11.080;2023-12-07T09:59:59;13.57;;;7.33;;
14330;SDS011;7249;49.376;11.080;2023-12-07T10:02:25;13.47;;;7.60;;
14330;SDS011;7249;49.376;11.080;2023-12-07T10:05:06;10.73;;;6.47;;
14330;SDS011;7249;49.376;11.080;2023-12-07T10:07:33;10.40;;;6.47;;
14330;SDS011;7249;49.376;11.080;2023-12-07T10:10:00;12.67;;;7.00;;
14330;SDS011;7249;49.376;11.080;2023-12-07T10:12:26;11.30;;;6.30;;
14330;SDS011;7249;49.376;11.080;2023-12-07T10:14:51;9.83;;;6.33;;
14330;SDS011;7249;49.376;11.080;2023-12-07T10:17:17;12.10;;;6.37;;
14330;SDS011;7249;49.376;11.080;2023-12-07T10:19:43;10.57;;;6.40;;
14330;SDS011;7249;49.376;11.080;2023-12-07T10:22:14;11.83;;;6.47;;
14330;SDS011;7249;49.376;11.080;2023-12-07T10:24:41;9.23;;;6.47;;
14330;SDS011;7249;49.376;11.080;2023-12-07T10:27:07;13.90;;;6.63;;
14330;SDS011;7249;49.376;11.080;2023-12-07T10:29:36;10.83;;;6.70;;
14330;SDS011;7249;49.376;11.080;2023-12-07T10:32:03;10.20;;;6.50;;
14330;SDS011;7249;49.376;11.080;2023-12-07T10:34:30;11.17;;;6.63;;
14330;SDS011;7249;49.376;11.080;2023-12-07T10:37:00;12.57;;;7.10;;
14330;SDS011;7249;49.376;11.080;2023-12-07T10:39:26;11.87;;;7.10;;
14330;SDS011;7249;49.376;11.080;2023-12-07T10:41:52;9.57;;;6.23;;
14330;SDS011;7249;49.376;11.080;2023-12-07T10:44:26;11.90;;;6.63;;
14330;SDS011;7249;49.376;11.080;2023-12-07T10:46:53;11.63;;;6.83;;
14330;SDS011;7249;49.376;11.080;2023-12-07T10:49:20;12.30;;;6.73;;
14330;SDS011;7249;49.376;11.080;2023-12-07T10:51:50;11.73;;;6.60;;
14330;SDS011;7249;49.376;11.080;2023-12-07T10:54:22;14.00;;;6.87;;
14330;SDS011;7249;49.376;11.080;2023-12-07T10:56:49;12.20;;;7.07;;
14330;SDS011;7249;49.376;11.080;2023-12-07T10:59:16;11.13;;;7.40;;
14330;SDS011;7249;49.376;11.080;2023-12-07T11:01:42;10.17;;;7.03;;
14330;SDS011;7249;49.376;11.080;2023-12-07T11:04:12;9.27;;;6.70;;
14330;SDS011;7249;49.376;11.080;2023-12-07T11:06:39;8.23;;;6.13;;
14330;SDS011;7249;49.376;11.080;2023-12-07T11:09:07;11.50;;;6.80;;
14330;SDS011;7249;49.376;11.080;2023-12-07T11:11:40;9.80;;;6.53;;
14330;SDS011;7249;49.376;11.080;2023-12-07T11:14:16;11.20;;;6.57;;
14330;SDS011;7249;49.376;11.080;2023-12-07T11:16:43;11.27;;;6.50;;
14330;SDS011;7249;49.376;11.080;2023-12-07T11:21:54;11.20;;;7.37;;
14330;SDS011;7249;49.376;11.080;2023-12-07T11:24:23;10.23;;;6.43;;
14330;SDS011;7249;49.376;11.080;2023-12-07T11:26:51;9.90;;;6.50;;
14330;SDS011;7249;49.376;11.080;2023-12-07T11:29:21;12.50;;;7.07;;
14330;SDS011;7249;49.376;11.080;2023-12-07T11:31:48;11.13;;;7.30;;
14330;SDS011;7249;49.376;11.080;2023-12-07T11:34:33;9.97;;;6.50;;
14330;SDS011;7249;49.376;11.080;2023-12-07T11:37:00;9.23;;;6.13;;
14330;SDS011;7249;49.376;11.080;2023-12-07T11:39:27;5.87;;;5.03;;
14330;SDS011;7249;49.376;11.080;2023-12-07T11:41:54;7.67;;;5.27;;
14330;SDS011;7249;49.376;11.080;2023-12-07T11:44:36;8.67;;;6.00;;
14330;SDS011;7249;49.376;11.080;2023-12-07T11:47:06;8.03;;;5.20;;
14330;SDS011;7249;49.376;11.080;2023-12-07T11:49:33;8.30;;;5.10;;
14330;SDS011;7249;49.376;11.080;2023-12-07T11:51:59;7.10;;;4.30;;
14330;SDS011;7249;49.376;11.080;2023-12-07T11:54:26;8.43;;;4.87;;
14330;SDS011;7249;49.376;11.080;2023-12-07T11:56:52;5.33;;;4.50;;
14330;SDS011;7249;49.376;11.080;2023-12-07T11:59:24;6.10;;;4.77;;
14330;SDS011;7249;49.376;11.080;2023-12-07T12:01:51;9.00;;;5.47;;
14330;SDS011;7249;49.376;11.080;2023-12-07T12:04:17;6.73;;;5.20;;
14330;SDS011;7249;49.376;11.080;2023-12-07T12:06:45;7.07;;;5.07;;
14330;SDS011;7249;49.376;11.080;2023-12-07T12:09:12;8.57;;;4.40;;
14330;SDS011;7249;49.376;11.080;2023-12-07T12:11:47;8.57;;;4.80;;
14330;SDS011;7249;49.376;11.080;2023-12-07T12:14:16;5.30;;;3.90;;
14330;SDS011;7249;49.376;11.080;2023-12-07T12:16:45;5.47;;;4.27;;
14330;SDS011;7249;49.376;11.080;2023-12-07T12:19:12;5.40;;;3.90;;
14330;SDS011;7249;49.376;11.080;2023-12-07T12:21:40;7.70;;;4.47;;
14330;SDS011;7249;49.376;11.080;2023-12-07T12:24:08;5.63;;;3.43;;
14330;SDS011;7249;49.376;11.080;2023-12-07T12:26:35;4.50;;;3.20;;
14330;SDS011;7249;49.376;11.080;2023-12-07T12:29:04;7.83;;;4.40;;
14330;SDS011;7249;49.376;11.080;2023-12-07T12:31:30;6.30;;;4.13;;
14330;SDS011;7249;49.376;11.080;2023-12-07T12:33:56;6.90;;;4.33;;
14330;SDS011;7249;49.376;11.080;2023-12-07T12:36:22;5.87;;;4.03;;
14330;SDS011;7249;49.376;11.080;2023-12-07T12:38:49;8.23;;;3.87;;
14330;SDS011;7249;49.376;11.080;2023-12-07T12:41:21;6.47;;;4.33;;
14330;SDS011;7249;49.376;11.080;2023-12-07T12:43:48;6.10;;;4.70;;
14330;SDS011;7249;49.376;11.080;2023-12-07T12:46:14;8.90;;;4.53;;
14330;SDS011;7249;49.376;11.080;2023-12-07T12:48:56;8.10;;;4.87;;
14330;SDS011;7249;49.376;11.080;2023-12-07T12:51:24;7.77;;;4.37;;
14330;SDS011;7249;49.376;11.080;2023-12-07T12:53:51;7.10;;;4.40;;
14330;SDS011;7249;49.376;11.080;2023-12-07T12:56:18;8.83;;;4.50;;
14330;SDS011;7249;49.376;11.080;2023-12-07T12:58:45;7.47;;;4.67;;
14330;SDS011;7249;49.376;11.080;2023-12-07T13:01:11;8.90;;;4.50;;
14330;SDS011;7249;49.376;11.080;2023-12-07T13:03:37;6.37;;;4.70;;
14330;SDS011;7249;49.376;11.080;2023-12-07T13:06:02;6.53;;;4.63;;
14330;SDS011;7249;49.376;11.080;2023-12-07T13:08:28;4.60;;;3.80;;
14330;SDS011;7249;49.376;11.080;2023-12-07T13:10:54;7.73;;;3.77;;
14330;SDS011;7249;49.376;11.080;2023-12-07T13:13:20;9.53;;;4.67;;
14330;SDS011;7249;49.376;11.080;2023-12-07T13:15:45;5.80;;;4.00;;
14330;SDS011;7249;49.376;11.080;2023-12-07T13:18:11;8.47;;;4.13;;
14330;SDS011;7249;49.376;11.080;2023-12-07T13:20:37;8.53;;;4.30;;
14330;SDS011;7249;49.376;11.080;2023-12-07T13:23:03;7.40;;;4.67;;
14330;SDS011;7249;49.376;11.080;2023-12-07T13:25:29;6.83;;;4.43;;
14330;SDS011;7249;49.376;11.080;2023-12-07T13:27:55;6.97;;;4.37;;
14330;SDS011;7249;49.376;11.080;2023-12-07T13:30:21;8.37;;;4.03;;
14330;SDS011;7249;49.376;11.080;2023-12-07T13:32:46;5.50;;;3.23;;
14330;SDS011;7249;49.376;11.080;2023-12-07T13:35:13;7.63;;;4.20;;
14330;SDS011;7249;49.376;11.080;2023-12-07T13:37:38;6.27;;;4.23;;
14330;SDS011;7249;49.376;11.080;2023-12-07T13:40:04;7.87;;;4.93;;
14330;SDS011;7249;49.376;11.080;2023-12-07T13:42:35;6.70;;;4.57;;
14330;SDS011;7249;49.376;11.080;2023-12-07T13:45:01;6.73;;;4.67;;
14330;SDS011;7249;49.376;11.080;2023-12-07T13:47:27;9.10;;;4.43;;
14330;SDS011;7249;49.376;11.080;2023-12-07T13:50:01;5.07;;;3.30;;
14330;SDS011;7249;49.376;11.080;2023-12-07T13:52:29;6.50;;;4.00;;
14330;SDS011;7249;49.376;11.080;2023-12-07T13:54:55;7.13;;;4.37;;
14330;SDS011;7249;49.376;11.080;2023-12-07T13:57:21;6.87;;;4.70;;
14330;SDS011;7249;49.376;11.080;2023-12-07T13:59:51;8.07;;;4.97;;
14330;SDS011;7249;49.376;11.080;2023-12-07T14:02:18;6.27;;;4.20;;
14330;SDS011;7249;49.376;11.080;2023-12-07T14:04:44;7.20;;;4.73;;
14330;SDS011;7249;49.376;11.080;2023-12-07T14:07:11;6.97;;;4.67;;
14330;SDS011;7249;49.376;11.080;2023-12-07T14:09:39;7.50;;;4.17;;
14330;SDS011;7249;49.376;11.080;2023-12-07T14:12:07;6.17;;;3.77;;
14330;SDS011;7249;49.376;11.080;2023-12-07T14:14:34;7.33;;;4.73;;
14330;SDS011;7249;49.376;11.080;2023-12-07T14:16:59;6.43;;;4.33;;
14330;SDS011;7249;49.376;11.080;2023-12-07T14:19:25;5.60;;;4.13;;
14330;SDS011;7249;49.376;11.080;2023-12-07T14:21:51;6.67;;;4.53;;
14330;SDS011;7249;49.376;11.080;2023-12-07T14:24:18;8.50;;;4.60;;
14330;SDS011;7249;49.376;11.080;2023-12-07T14:26:44;7.23;;;4.10;;
14330;SDS011;7249;49.376;11.080;2023-12-07T14:29:09;7.27;;;4.00;;
14330;SDS011;7249;49.376;11.080;2023-12-07T14:31:40;6.17;;;3.60;;
14330;SDS011;7249;49.376;11.080;2023-12-07T14:34:06;6.00;;;3.87;;
14330;SDS011;7249;49.376;11.080;2023-12-07T14:36:31;6.07;;;4.07;;
14330;SDS011;7249;49.376;11.080;2023-12-07T14:38:57;5.10;;;3.53;;
14330;SDS011;7249;49.376;11.080;2023-12-07T14:41:23;5.53;;;3.43;;
14330;SDS011;7249;49.376;11.080;2023-12-07T14:43:48;5.87;;;3.87;;
14330;SDS011;7249;49.376;11.080;2023-12-07T14:46:14;6.60;;;3.53;;
14330;SDS011;7249;49.376;11.080;2023-12-07T14:48:40;6.53;;;4.03;;
14330;SDS011;7249;49.376;11.080;2023-12-07T14:51:05;6.63;;;3.47;;
14330;SDS011;7249;49.376;11.080;2023-12-07T14:53:31;5.93;;;3.93;;
14330;SDS011;7249;49.376;11.080;2023-12-07T14:55:58;5.50;;;3.67;;
14330;SDS011;7249;49.376;11.080;2023-12-07T14:58:24;6.37;;;3.60;;
14330;SDS011;7249;49.376;11.080;2023-12-07T15:00:50;6.40;;;4.37;;
14330;SDS011;7249;49.376;11.080;2023-12-07T15:03:16;5.97;;;3.77;;
14330;SDS011;7249;49.376;11.080;2023-12-07T15:05:43;5.37;;;3.53;;
14330;SDS011;7249;49.376;11.080;2023-12-07T15:08:09;11.37;;;5.43;;
14330;SDS011;7249;49.376;11.080;2023-12-07T15:10:36;10.73;;;5.03;;
14330;SDS011;7249;49.376;11.080;2023-12-07T15:13:02;9.90;;;4.10;;
14330;SDS011;7249;49.376;11.080;2023-12-07T15:15:28;5.90;;;3.53;;
14330;SDS011;7249;49.376;11.080;2023-12-07T15:17:53;6.23;;;4.00;;
14330;SDS011;7249;49.376;11.080;2023-12-07T15:20:19;6.60;;;4.17;;
14330;SDS011;7249;49.376;11.080;2023-12-07T15:22:44;6.90;;;4.10;;
14330;SDS011;7249;49.376;11.080;2023-12-07T15:25:11;6.43;;;3.50;;
14330;SDS011;7249;49.376;11.080;2023-12-07T15:27:37;6.47;;;4.30;;
14330;SDS011;7249;49.376;11.080;2023-12-07T15:30:02;6.57;;;4.33;;
14330;SDS011;7249;49.376;11.080;2023-12-07T15:32:32;6.40;;;3.60;;
14330;SDS011;7249;49.376;11.080;2023-12-07T15:34:57;6.63;;;3.77;;
14330;SDS011;7249;49.376;11.080;2023-12-07T15:37:23;7.03;;;4.20;;
14330;SDS011;7249;49.376;11.080;2023-12-07T15:39:49;5.27;;;3.60;;
14330;SDS011;7249;49.376;11.080;2023-12-07T15:42:16;7.87;;;4.00;;